createdAt,value
2022-09-30T00:03:29.625Z,100015.75
2022-09-30T00:08:54.853Z,100017.34
2022-09-30T00:14:19.845Z,100018.94
2022-09-30T00:19:42.375Z,100002.91
2022-09-30T00:25:05.445Z,100010.28
2022-09-30T00:30:27.665Z,100009.47
2022-09-30T00:35:50.266Z,100027.16
2022-09-30T00:41:12.645Z,100028.47
2022-09-30T00:46:44.647Z,100033.28
2022-09-30T00:52:07.545Z,100028.41
2022-09-30T00:57:30.498Z,100025.16
2022-09-30T01:02:53.068Z,100034.56
2022-09-30T01:08:15.124Z,100033.16
2022-09-30T01:13:42.022Z,99965.78
2022-09-30T01:19:44.346Z,99987.31
2022-09-30T01:25:45.445Z,99975.53
2022-09-30T01:31:51.003Z,100007.44
2022-09-30T01:37:38.736Z,100067.88
2022-09-30T01:43:58.945Z,100065.78
2022-09-30T01:49:36.163Z,100065.47
2022-09-30T01:55:23.845Z,99987.38
2022-09-30T02:00:57.029Z,99989.78
2022-09-30T02:06:44.951Z,100037.84
2022-09-30T02:12:30.444Z,100030.69
2022-09-30T02:18:05.120Z,100009.00
2022-09-30T02:23:33.605Z,100045.09
2022-09-30T02:29:13.845Z,100027.16
2022-09-30T02:34:53.504Z,100053.56
2022-09-30T02:40:29.355Z,100065.97
2022-09-30T02:46:12.870Z,100017.22
2022-09-30T02:51:43.091Z,100058.94
2022-09-30T02:57:12.600Z,100070.53
2022-09-30T03:02:37.545Z,100036.38
2022-09-30T03:08:02.849Z,100079.91
2022-09-30T03:13:53.605Z,100072.38
2022-09-30T03:20:00.904Z,100074.50
2022-09-30T03:25:57.811Z,100077.19
2022-09-30T03:31:34.750Z,100088.97
2022-09-30T03:37:09.605Z,100058.78
2022-09-30T03:49:02.044Z,100060.25
2022-09-30T03:54:40.942Z,100036.84
2022-09-30T04:00:18.356Z,100094.47
2022-09-30T04:05:49.954Z,100031.41
2022-09-30T04:11:25.000Z,100021.72
2022-09-30T04:16:58.963Z,100066.41
2022-09-30T04:22:26.646Z,100116.78
2022-09-30T04:28:08.864Z,100119.97
2022-09-30T04:33:41.386Z,100096.44
2022-09-30T04:39:19.276Z,100057.66
2022-09-30T04:44:50.009Z,100070.47
2022-09-30T04:50:21.501Z,100080.06
2022-09-30T04:56:05.814Z,100113.41
2022-09-30T05:01:34.026Z,100124.16
2022-09-30T05:07:00.966Z,100063.63
2022-09-30T05:12:31.264Z,100078.03
2022-09-30T05:18:30.663Z,100073.00
2022-09-30T05:23:55.542Z,100081.78
2022-09-30T05:29:20.952Z,100065.13
2022-09-30T05:34:43.124Z,100075.28
2022-09-30T05:40:05.587Z,100052.16
2022-09-30T05:45:30.760Z,100098.38
2022-09-30T05:50:59.323Z,100082.56
2022-09-30T05:56:21.402Z,100102.53
2022-09-30T06:01:47.420Z,100104.88
2022-09-30T06:07:10.599Z,100065.22
2022-09-30T06:12:33.090Z,100131.34
2022-09-30T06:17:55.761Z,100125.88
2022-09-30T06:23:17.895Z,100129.88
2022-09-30T06:28:40.086Z,100143.53
2022-09-30T06:34:02.304Z,100139.13
2022-09-30T06:39:25.214Z,100145.78
2022-09-30T06:44:52.868Z,100137.59
2022-09-30T06:50:24.644Z,100136.19
2022-09-30T06:55:47.716Z,100140.50
2022-09-30T07:01:09.900Z,100143.41
2022-09-30T07:06:32.395Z,100122.41
2022-09-30T07:12:06.835Z,100138.75
2022-09-30T07:17:29.885Z,100132.69
2022-09-30T07:22:51.905Z,100120.44
2022-09-30T07:28:14.786Z,100121.75
2022-09-30T07:33:36.726Z,100127.75
2022-09-30T07:38:58.966Z,100119.56
2022-09-30T07:44:21.170Z,100117.94
2022-09-30T07:49:44.445Z,100137.50
2022-09-30T07:55:06.885Z,100136.38
2022-09-30T08:00:42.019Z,100134.97
2022-09-30T08:06:13.890Z,100140.66
2022-09-30T08:11:37.806Z,100123.34
2022-09-30T08:17:00.956Z,100134.00
2022-09-30T08:22:26.086Z,100145.78
2022-09-30T08:27:47.917Z,100143.56
2022-09-30T08:33:11.256Z,100147.78
2022-09-30T08:38:35.145Z,100154.91
2022-09-30T08:44:33.206Z,100152.19
2022-09-30T08:50:23.001Z,100143.69
2022-09-30T08:55:47.084Z,100151.28
2022-09-30T09:01:43.159Z,100157.91
2022-09-30T09:07:46.219Z,100155.28
2022-09-30T09:13:33.645Z,100147.19
2022-09-30T09:19:00.504Z,100150.53
2022-09-30T09:24:29.285Z,100146.19
2022-09-30T09:30:03.459Z,100137.97
2022-09-30T09:35:30.346Z,100161.69
2022-09-30T09:41:26.816Z,100161.50
2022-09-30T09:47:20.207Z,100156.00
2022-09-30T09:53:00.728Z,100145.72
2022-09-30T09:58:23.154Z,100145.53
2022-09-30T10:03:45.304Z,100151.53
2022-09-30T10:09:28.729Z,100116.88
2022-09-30T10:14:58.343Z,100144.16
2022-09-30T10:20:43.346Z,100134.44
2022-09-30T10:31:52.539Z,100107.09
2022-09-30T10:37:24.009Z,100134.47
2022-09-30T10:42:49.006Z,100069.59
2022-09-30T10:48:20.761Z,100087.00
2022-09-30T10:53:47.323Z,100124.75
2022-09-30T10:59:39.387Z,100087.50
2022-09-30T11:05:25.551Z,100125.69
2022-09-30T11:11:07.259Z,100126.81
2022-09-30T11:17:23.297Z,100124.38
2022-09-30T11:23:04.895Z,100130.13
2022-09-30T11:28:41.817Z,100128.22
2022-09-30T11:34:32.416Z,100132.84
2022-09-30T11:40:21.875Z,100125.34
2022-09-30T11:45:54.778Z,100129.19
2022-09-30T11:51:50.941Z,100139.84
2022-09-30T11:57:34.616Z,100141.25
2022-09-30T12:03:14.117Z,100135.84
2022-09-30T12:08:49.275Z,100133.75
2022-09-30T12:14:27.904Z,100138.09
2022-09-30T12:19:56.565Z,100138.13
2022-09-30T12:25:28.621Z,100062.38
2022-09-30T12:31:03.023Z,100094.84
2022-09-30T12:36:44.254Z,100045.94
2022-09-30T12:42:50.763Z,100136.41
2022-09-30T12:48:24.104Z,100103.47
2022-09-30T12:54:14.415Z,100061.44
2022-09-30T12:59:55.643Z,100049.78
2022-09-30T13:05:43.971Z,100106.69
2022-09-30T13:11:18.227Z,100118.16
2022-09-30T13:17:07.935Z,100143.75
2022-09-30T13:22:30.338Z,100139.41
2022-09-30T13:28:09.945Z,100147.88
2022-09-30T13:33:43.477Z,100143.53
2022-09-30T13:39:26.863Z,100146.25
2022-09-30T13:45:08.426Z,100136.03
2022-09-30T13:50:49.841Z,100129.00
2022-09-30T13:56:21.202Z,100136.69
2022-09-30T14:01:55.092Z,100133.47
2022-09-30T14:07:38.680Z,100139.19
2022-09-30T14:13:34.865Z,100110.09
2022-09-30T14:19:31.706Z,100123.38
2022-09-30T14:33:06.615Z,100139.47
2022-09-30T14:38:32.676Z,100140.41
2022-09-30T14:44:03.136Z,100147.25
2022-09-30T14:49:38.683Z,100135.22
2022-09-30T14:55:09.426Z,100106.47
2022-09-30T15:00:37.264Z,100104.25
2022-09-30T15:06:03.759Z,100081.66
2022-09-30T15:11:36.083Z,100067.94
2022-09-30T15:17:06.237Z,100118.56
2022-09-30T15:22:35.342Z,100065.97
2022-09-30T15:28:06.620Z,100073.91
2022-09-30T15:33:32.525Z,100096.63
2022-09-30T15:38:59.724Z,100074.84
2022-09-30T15:44:41.198Z,100101.53
2022-09-30T15:50:53.699Z,100065.91
2022-09-30T15:56:37.398Z,100065.53
2022-09-30T16:02:07.058Z,100087.25
2022-09-30T16:07:39.076Z,100142.16
2022-09-30T16:13:07.472Z,100130.84
2022-09-30T16:18:34.170Z,100131.63
2022-09-30T16:23:56.898Z,100129.22
2022-09-30T16:29:20.398Z,100113.53
2022-09-30T16:34:42.106Z,100107.13
2022-09-30T16:40:21.995Z,100112.44
2022-09-30T16:45:44.302Z,100123.75
2022-09-30T16:51:12.519Z,100129.34
2022-09-30T16:56:35.538Z,100131.25
2022-09-30T17:01:59.946Z,100139.88
2022-09-30T17:07:25.338Z,100140.66
2022-09-30T17:13:00.475Z,100097.97
2022-09-30T17:18:29.237Z,100073.66
2022-09-30T17:24:15.240Z,100075.06
2022-09-30T17:29:48.756Z,100067.06
2022-09-30T17:41:19.376Z,100074.44
2022-09-30T17:46:56.495Z,100099.25
2022-09-30T17:52:49.198Z,100058.94
2022-09-30T17:58:16.324Z,100123.09
2022-09-30T18:04:08.246Z,100138.91
2022-09-30T18:09:52.100Z,100063.38
2022-09-30T18:15:18.498Z,100050.88
2022-09-30T18:20:53.896Z,100113.91
2022-09-30T18:26:36.065Z,100057.56
2022-09-30T18:32:01.829Z,100056.78
2022-09-30T18:37:39.017Z,100106.72
2022-09-30T18:43:46.745Z,100090.69
2022-09-30T18:49:15.893Z,100134.34
2022-09-30T18:54:56.966Z,100081.63
2022-09-30T19:00:38.670Z,100068.34
2022-09-30T19:06:31.704Z,100095.84
2022-09-30T19:11:58.818Z,100065.13
2022-09-30T19:17:28.844Z,100082.13
2022-09-30T19:22:57.228Z,100085.81
2022-09-30T19:28:23.036Z,100071.09
2022-09-30T19:33:56.436Z,100109.47
2022-09-30T19:39:22.523Z,100107.34
2022-09-30T19:44:48.980Z,100082.84
2022-09-30T19:50:15.109Z,100116.38
2022-09-30T19:55:49.441Z,100081.63
2022-09-30T20:01:14.731Z,100111.97
2022-09-30T20:06:39.036Z,100125.78
2022-09-30T20:12:01.996Z,100090.44
2022-09-30T20:17:26.538Z,100154.41
2022-09-30T20:22:51.085Z,100078.25
2022-09-30T20:28:18.460Z,100117.34
2022-09-30T20:33:58.944Z,100125.78
2022-09-30T20:39:32.047Z,100147.63
2022-09-30T20:45:06.416Z,100146.66
2022-09-30T20:50:37.418Z,100073.81
2022-09-30T20:56:05.114Z,100126.91
2022-09-30T21:01:30.502Z,100160.94
2022-09-30T21:06:56.304Z,100096.19
2022-09-30T21:12:21.758Z,100110.28
2022-09-30T21:17:54.017Z,100160.38
2022-09-30T21:23:19.279Z,100094.91
2022-09-30T21:28:51.479Z,100091.91
2022-09-30T21:34:22.938Z,100099.59
2022-09-30T21:40:13.039Z,100104.69
2022-09-30T21:45:46.699Z,100135.63
2022-09-30T21:51:20.635Z,100114.31
2022-09-30T21:56:45.644Z,100184.19
2022-09-30T22:02:08.205Z,100187.19
2022-09-30T22:07:38.310Z,100160.13
2022-09-30T22:13:10.928Z,100115.09
2022-09-30T22:18:42.227Z,100134.69
2022-09-30T22:24:14.424Z,100104.59
2022-09-30T22:29:48.667Z,100142.03
2022-09-30T22:35:33.734Z,100119.72
2022-09-30T22:40:56.434Z,100189.69
2022-09-30T22:46:26.307Z,100194.50
2022-09-30T22:51:59.746Z,100145.53
2022-09-30T22:57:25.567Z,100163.94
2022-09-30T23:03:04.206Z,100141.09
2022-09-30T23:08:33.096Z,100110.38
2022-09-30T23:14:03.926Z,100095.25
2022-09-30T23:19:37.415Z,100107.06
2022-09-30T23:25:15.455Z,100132.56
2022-09-30T23:30:43.829Z,100112.25
2022-09-30T23:36:13.936Z,100120.66
2022-09-30T23:41:43.713Z,100136.75
2022-09-30T23:47:22.216Z,100132.88
2022-09-30T23:52:47.436Z,100130.03
2022-09-30T23:58:10.153Z,100130.22
